Time;durP1;ratioP1;P1;durP2;ratioP2;P2;SDS_P1;SDS_P2;PMS_P1;PMS_P2;Temp;Humidity;BMP_temperature;BMP_pressure;BME280_temperature;BME280_humidity;BME280_pressure;Samples;Min_cycle;Max_cycle;Signal;HPM_P1;HPM_P2
2023/01/12 00:00:36;;;;;;;;;;;;;;;-8.86;59.99;101152.94;4966227;28;19960;-62
2023/01/12 00:03:01;;;;;;;;;;;;;;;-8.86;59.71;101147.63;4964910;28;20340;-61
2023/01/12 00:05:27;;;;;;;;;;;;;;;-8.90;59.56;101139.06;4966246;28;20404;-61
2023/01/12 00:07:53;;;;;;;;;;;;;;;-8.86;60.08;101129.91;4981685;28;19930;-60
2023/01/12 00:10:19;;;;;;;;;;;;;;;-8.79;59.82;101140.06;4968919;28;20009;-62
2023/01/12 00:12:46;;;;;;;;;;;;;;;-8.82;59.94;101135.84;4968239;28;20294;-61
2023/01/12 00:15:12;;;;;;;;;;;;;;;-8.83;59.70;101137.63;4965561;28;19934;-62
2023/01/12 00:17:38;;;;;;;;;;;;;;;-8.87;59.91;101138.00;4966724;28;20385;-62
2023/01/12 00:20:05;;;;;;;;;;;;;;;-8.88;59.96;101131.84;4966832;28;19930;-61
2023/01/12 00:22:30;;;;;;;;;;;;;;;-8.90;60.33;101133.75;4965341;28;20029;-60
2023/01/12 00:24:56;;;;;;;;;;;;;;;-8.90;60.37;101130.25;4965805;28;20369;-62
2023/01/12 00:27:22;;;;;;;;;;;;;;;-8.88;60.22;101131.00;4965430;28;20045;-66
2023/01/12 00:29:49;;;;;;;;;;;;;;;-8.86;60.24;101132.56;4968244;28;19941;-65
2023/01/12 00:32:16;;;;;;;;;;;;;;;-8.86;60.40;101121.97;4966472;28;19976;-65
2023/01/12 00:34:42;;;;;;;;;;;;;;;-8.84;60.35;101129.81;4967444;28;19973;-62
2023/01/12 00:37:08;;;;;;;;;;;;;;;-8.81;60.15;101116.31;4966061;28;19930;-61
2023/01/12 00:39:35;;;;;;;;;;;;;;;-8.86;60.25;101132.56;4967178;28;19934;-62
2023/01/12 00:47:31;;;;;;;;;;;;;;;-8.97;60.19;101104.22;4963546;28;19930;-65
2023/01/12 00:49:57;;;;;;;;;;;;;;;-8.91;60.65;101110.84;4966760;28;19930;-65
2023/01/12 00:52:23;;;;;;;;;;;;;;;-8.93;60.57;101112.78;4966307;28;19977;-63
2023/01/12 00:54:49;;;;;;;;;;;;;;;-8.89;60.80;101108.94;4964737;28;20305;-61
2023/01/12 00:57:16;;;;;;;;;;;;;;;-9.03;60.61;101114.44;4966394;28;20310;-63
2023/01/12 00:59:43;;;;;;;;;;;;;;;-8.88;60.53;101115.09;4965403;28;19934;-66
2023/01/12 01:02:09;;;;;;;;;;;;;;;-8.80;60.77;101135.72;4968315;28;19937;-62
2023/01/12 01:04:36;;;;;;;;;;;;;;;-8.80;60.33;101114.53;4967844;28;19930;-61
2023/01/12 01:07:02;;;;;;;;;;;;;;;-8.87;60.28;101127.38;4966661;28;19934;-61
2023/01/12 01:09:29;;;;;;;;;;;;;;;-8.90;60.84;101122.28;4965280;28;19941;-62
2023/01/12 01:11:54;;;;;;;;;;;;;;;-8.89;60.52;101113.41;4964180;28;20405;-61
2023/01/12 01:14:20;;;;;;;;;;;;;;;-8.90;60.50;101123.16;4964204;28;19973;-62
2023/01/12 01:16:46;;;;;;;;;;;;;;;-8.92;61.02;101116.25;4963041;28;19930;-65
2023/01/12 01:19:12;;;;;;;;;;;;;;;-8.90;60.99;101117.00;4964301;28;19937;-65
2023/01/12 01:21:39;;;;;;;;;;;;;;;-8.86;60.89;101107.88;4963988;28;19937;-66
2023/01/12 01:24:08;;;;;;;;;;;;;;;-8.82;60.75;101133.19;4965698;28;20025;-66
2023/01/12 01:26:33;;;;;;;;;;;;;;;-8.80;60.62;101107.41;4977102;28;19930;-66
2023/01/12 01:28:59;;;;;;;;;;;;;;;-8.79;60.77;101113.56;4975307;28;20008;-65
2023/01/12 01:31:25;;;;;;;;;;;;;;;-8.85;60.73;101113.03;4963324;28;19985;-63
2023/01/12 01:33:51;;;;;;;;;;;;;;;-8.91;60.85;101132.06;4963736;28;20157;-62
2023/01/12 01:36:17;;;;;;;;;;;;;;;-8.92;60.99;101108.31;4963351;28;20402;-63
2023/01/12 01:38:45;;;;;;;;;;;;;;;-8.89;60.94;101113.41;4965383;28;19930;-61
2023/01/12 01:41:15;;;;;;;;;;;;;;;-8.91;61.29;101118.81;4978140;28;19952;-61
2023/01/12 01:43:48;;;;;;;;;;;;;;;-8.88;60.96;101094.72;4963973;28;19930;-60
2023/01/12 01:46:15;;;;;;;;;;;;;;;-8.90;61.13;101088.69;4960700;28;20088;-61
2023/01/12 01:48:42;;;;;;;;;;;;;;;-8.87;60.85;101085.78;4965056;28;19937;-62
2023/01/12 01:51:11;;;;;;;;;;;;;;;-8.93;61.42;101085.41;4962073;28;20137;-60
2023/01/12 01:53:38;;;;;;;;;;;;;;;-8.98;61.36;101109.59;4965923;28;20389;-62
2023/01/12 01:56:09;;;;;;;;;;;;;;;-9.03;61.64;101099.38;4964168;28;20393;-61
2023/01/12 01:58:36;;;;;;;;;;;;;;;-9.00;61.68;101075.28;4966202;28;19938;-63
2023/01/12 02:01:02;;;;;;;;;;;;;;;-8.95;61.52;101084.69;4961929;28;19934;-60
2023/01/12 02:03:28;;;;;;;;;;;;;;;-9.18;61.34;101064.25;4965343;28;19934;-61
2023/01/12 02:05:56;;;;;;;;;;;;;;;-8.98;61.68;101075.16;4963314;28;20740;-61
2023/01/12 02:08:24;;;;;;;;;;;;;;;-8.97;61.89;101064.44;4963882;28;19940;-62
2023/01/12 02:10:51;;;;;;;;;;;;;;;-8.96;61.75;101067.94;4962723;28;19930;-60
2023/01/12 02:16:22;;;;;;;;;;;;;;;-8.92;61.75;101065.88;4964502;28;19942;-61
2023/01/12 02:18:53;;;;;;;;;;;;;;;-8.93;61.82;101072.16;4963189;28;19938;-65
2023/01/12 02:21:37;;;;;;;;;;;;;;;-8.96;62.23;101044.09;4962741;28;19930;-65
2023/01/12 02:24:22;;;;;;;;;;;;;;;-8.97;62.09;101048.53;4962209;28;20028;-65
2023/01/12 02:27:05;;;;;;;;;;;;;;;-8.91;62.33;101049.88;4955370;28;20016;-65
2023/01/12 02:29:45;;;;;;;;;;;;;;;-8.89;62.13;101052.44;4979789;28;19946;-61
2023/01/12 02:32:18;;;;;;;;;;;;;;;-8.90;61.73;101066.63;4968617;28;19984;-61
2023/01/12 02:34:50;;;;;;;;;;;;;;;-8.88;61.72;101065.53;4968224;28;20416;-61
2023/01/12 02:37:21;;;;;;;;;;;;;;;-8.96;61.72;101065.31;4982120;28;19980;-61
2023/01/12 02:39:49;;;;;;;;;;;;;;;-9.00;61.79;101054.06;4966093;28;19930;-60
2023/01/12 02:45:08;;;;;;;;;;;;;;;-8.98;62.20;101046.00;4984859;28;20380;-65
2023/01/12 02:47:38;;;;;;;;;;;;;;;-8.89;61.92;101052.44;4965956;28;19937;-65
2023/01/12 02:50:08;;;;;;;;;;;;;;;-8.91;61.97;101041.06;4967196;28;20405;-65
2023/01/12 02:52:34;;;;;;;;;;;;;;;-8.95;62.15;101044.91;4965615;28;20365;-66
2023/01/12 02:55:00;;;;;;;;;;;;;;;-8.99;62.05;101037.22;4967160;28;20365;-65
2023/01/12 02:57:28;;;;;;;;;;;;;;;-9.00;62.25;101039.97;4966144;28;20394;-65
2023/01/12 02:59:54;;;;;;;;;;;;;;;-8.98;62.36;101038.91;4950406;28;20309;-69
2023/01/12 03:02:21;;;;;;;;;;;;;;;-8.89;62.56;101047.94;4968976;28;20060;-65
2023/01/12 03:04:48;;;;;;;;;;;;;;;-8.84;62.27;101039.66;4966463;28;19930;-64
2023/01/12 03:07:37;;;;;;;;;;;;;;;-8.79;61.90;101047.25;4966691;28;21310;-65
2023/01/12 03:10:11;;;;;;;;;;;;;;;-8.86;62.13;101046.88;4966256;28;20008;-65
2023/01/12 03:12:38;;;;;;;;;;;;;;;-8.95;61.95;101074.94;4967909;28;19930;-65
2023/01/12 03:15:06;;;;;;;;;;;;;;;-8.96;62.20;101044.09;4964979;28;19930;-66
2023/01/12 03:17:36;;;;;;;;;;;;;;;-8.97;62.40;101055.66;4967230;28;19982;-65
2023/01/12 03:20:05;;;;;;;;;;;;;;;-8.98;62.14;101038.91;4967515;28;20307;-65
2023/01/12 03:22:33;;;;;;;;;;;;;;;-8.95;62.52;101048.44;4968443;28;20429;-65
2023/01/12 03:25:01;;;;;;;;;;;;;;;-8.97;62.55;101051.19;4965566;28;20024;-65
2023/01/12 03:27:28;;;;;;;;;;;;;;;-8.95;62.53;101061.69;4969061;28;19972;-65
2023/01/12 03:29:57;;;;;;;;;;;;;;;-8.90;62.30;101050.72;4967460;28;19930;-66
2023/01/12 03:32:23;;;;;;;;;;;;;;;-8.86;62.08;101062.78;4965604;28;19930;-66
2023/01/12 03:34:49;;;;;;;;;;;;;;;-8.86;62.05;101050.38;4962492;28;19930;-66
2023/01/12 03:37:22;;;;;;;;;;;;;;;-8.85;62.39;101053.88;4967811;28;20316;-66
2023/01/12 03:39:49;;;;;;;;;;;;;;;-8.76;61.98;101058.47;4965632;28;19977;-66
2023/01/12 03:42:16;;;;;;;;;;;;;;;-8.70;62.08;101084.53;4962814;28;20020;-65
2023/01/12 03:44:49;;;;;;;;;;;;;;;-8.73;61.67;101065.34;4966676;28;19930;-65
2023/01/12 03:47:17;;;;;;;;;;;;;;;-8.77;61.52;101053.28;4964367;28;19984;-66
2023/01/12 03:49:46;;;;;;;;;;;;;;;-8.82;62.08;101040.38;4963956;28;19934;-65
2023/01/12 03:52:12;;;;;;;;;;;;;;;-8.88;61.86;101043.50;4963632;28;19930;-65
2023/01/12 03:54:41;;;;;;;;;;;;;;;-8.85;61.77;101077.75;4949078;28;20037;-65
2023/01/12 03:57:08;;;;;;;;;;;;;;;-8.89;61.84;101055.91;4964182;28;19938;-66
2023/01/12 03:59:34;;;;;;;;;;;;;;;-8.95;61.81;101039.63;4947907;28;20024;-66
2023/01/12 04:02:01;;;;;;;;;;;;;;;-8.95;62.11;101029.88;4966363;28;20037;-65
2023/01/12 04:04:27;;;;;;;;;;;;;;;-8.93;62.29;101025.28;4966163;28;19937;-68
2023/01/12 04:06:53;;;;;;;;;;;;;;;-8.90;62.21;101013.59;4966562;28;19930;-66
2023/01/12 04:09:21;;;;;;;;;;;;;;;-8.89;62.20;101026.75;4967678;28;19936;-66
2023/01/12 04:14:33;;;;;;;;;;;;;;;-8.83;62.17;101022.78;4965947;28;19961;-65
2023/01/12 04:16:59;;;;;;;;;;;;;;;-8.88;62.19;101015.16;4966009;28;19934;-60
2023/01/12 04:19:24;;;;;;;;;;;;;;;-8.94;61.97;101009.50;4967084;28;19952;-62
2023/01/12 04:24:35;;;;;;;;;;;;;;;-8.94;62.45;100999.75;4965450;28;20349;-65
2023/01/12 04:27:02;;;;;;;;;;;;;;;-8.97;62.38;100990.22;4963821;28;19930;-61
2023/01/12 04:29:27;;;;;;;;;;;;;;;-9.04;62.30;101020.81;4967817;28;19930;-61
2023/01/12 04:31:53;;;;;;;;;;;;;;;-9.00;62.20;101019.63;4965444;28;19952;-61
2023/01/12 04:34:19;;;;;;;;;;;;;;;-9.04;62.46;101009.34;4965949;28;19930;-66
2023/01/12 04:36:45;;;;;;;;;;;;;;;-9.00;62.59;101011.66;4965984;28;19930;-65
2023/01/12 04:39:11;;;;;;;;;;;;;;;-8.96;62.20;101006.97;4970066;28;19930;-61
2023/01/12 04:41:37;;;;;;;;;;;;;;;-8.97;62.29;101008.78;4968405;28;19968;-66
2023/01/12 04:44:04;;;;;;;;;;;;;;;-9.00;62.50;101021.41;4969081;28;19961;-58
2023/01/12 04:46:29;;;;;;;;;;;;;;;-8.94;62.53;101017.44;4966911;28;19965;-60
2023/01/12 04:48:55;;;;;;;;;;;;;;;-8.96;62.04;101014.94;4966292;28;19976;-60
2023/01/12 04:51:21;;;;;;;;;;;;;;;-8.99;62.07;101031.03;4967533;28;19930;-61
2023/01/12 04:53:47;;;;;;;;;;;;;;;-9.04;62.35;101026.13;4976922;28;20417;-60
2023/01/12 04:56:13;;;;;;;;;;;;;;;-9.12;62.53;101015.25;4965423;28;20041;-60
2023/01/12 04:58:41;;;;;;;;;;;;;;;-9.07;62.67;100996.34;4969280;28;20437;-66
2023/01/12 05:01:08;;;;;;;;;;;;;;;-9.04;63.06;101002.25;4984379;28;20005;-69
2023/01/12 05:03:35;;;;;;;;;;;;;;;-9.05;63.08;100989.97;4966663;28;20345;-66
2023/01/12 05:06:02;;;;;;;;;;;;;;;-9.05;62.79;100995.28;4963690;28;19930;-66
2023/01/12 05:11:14;;;;;;;;;;;;;;;-9.01;62.75;101012.63;4967639;28;19930;-66
2023/01/12 05:13:41;;;;;;;;;;;;;;;-8.94;62.35;101012.16;4967389;28;19929;-66
2023/01/12 05:16:11;;;;;;;;;;;;;;;-8.98;61.98;100995.63;4969804;28;19933;-66
2023/01/12 05:18:36;;;;;;;;;;;;;;;-9.09;62.46;101006.22;4973649;28;19930;-66
2023/01/12 05:21:03;;;;;;;;;;;;;;;-9.08;62.68;101016.69;4968820;28;19930;-66
2023/01/12 05:23:29;;;;;;;;;;;;;;;-9.11;62.47;100993.06;4965913;28;19957;-66
2023/01/12 05:25:57;;;;;;;;;;;;;;;-9.16;62.62;101025.22;4969073;28;19968;-66
2023/01/12 05:28:22;;;;;;;;;;;;;;;-9.21;62.89;101010.63;4966245;28;19930;-66
2023/01/12 05:30:48;;;;;;;;;;;;;;;-9.20;62.88;101015.81;4962919;28;19948;-62
2023/01/12 05:33:15;;;;;;;;;;;;;;;-9.15;62.97;101020.78;4964579;28;20054;-59
2023/01/12 05:35:41;;;;;;;;;;;;;;;-9.15;62.62;101031.38;4966578;28;19934;-59
2023/01/12 05:38:07;;;;;;;;;;;;;;;-9.14;62.68;101012.69;4966145;28;19937;-60
2023/01/12 05:40:32;;;;;;;;;;;;;;;-9.09;62.76;101014.16;4966937;28;19940;-66
2023/01/12 05:45:42;;;;;;;;;;;;;;;-9.22;62.91;101008.94;4965633;28;20314;-65
2023/01/12 05:48:08;;;;;;;;;;;;;;;-9.24;63.63;101009.06;4966059;28;19941;-65
2023/01/12 05:50:36;;;;;;;;;;;;;;;-9.18;63.67;101005.94;4966161;28;19997;-65
2023/01/12 05:53:08;;;;;;;;;;;;;;;-9.13;63.28;101011.75;4961480;28;19977;-66
2023/01/12 05:55:35;;;;;;;;;;;;;;;-9.11;63.63;101006.31;4963165;28;19930;-66
2023/01/12 05:58:01;;;;;;;;;;;;;;;-9.16;63.12;101006.66;4966362;28;19930;-66
2023/01/12 06:00:26;;;;;;;;;;;;;;;-9.17;63.05;101015.59;4966802;28;20411;-60
2023/01/12 06:02:52;;;;;;;;;;;;;;;-9.16;63.01;101042.94;4950426;28;20454;-62
2023/01/12 06:05:18;;;;;;;;;;;;;;;-9.22;63.37;101014.25;4967959;28;19936;-66
2023/01/12 06:07:45;;;;;;;;;;;;;;;-9.42;63.54;101020.09;4966792;28;20037;-65
2023/01/12 06:10:11;;;;;;;;;;;;;;;-9.61;63.92;101006.50;4969048;28;19936;-60
2023/01/12 06:15:21;;;;;;;;;;;;;;;-9.83;64.76;101011.59;4969619;28;19930;-66
2023/01/12 06:17:49;;;;;;;;;;;;;;;-9.92;64.99;100983.13;4958054;28;19942;-59
2023/01/12 06:20:16;;;;;;;;;;;;;;;-9.94;65.76;101008.03;4967599;28;19929;-61
2023/01/12 06:22:42;;;;;;;;;;;;;;;-9.94;65.69;101000.94;4973204;28;19930;-60
2023/01/12 06:25:11;;;;;;;;;;;;;;;-9.91;65.52;101018.38;4969739;28;21934;-60
2023/01/12 06:27:38;;;;;;;;;;;;;;;-9.94;65.41;101013.31;4968056;28;19930;-61
2023/01/12 06:30:05;;;;;;;;;;;;;;;-9.97;65.05;101004.66;4966496;28;19992;-60
2023/01/12 06:32:31;;;;;;;;;;;;;;;-10.00;65.19;100999.59;4969706;28;19930;-64
2023/01/12 06:34:57;;;;;;;;;;;;;;;-10.03;65.23;101014.81;4966826;28;19988;-59
2023/01/12 06:37:23;;;;;;;;;;;;;;;-10.07;65.60;100997.50;4982649;28;20452;-60
2023/01/12 06:39:49;;;;;;;;;;;;;;;-10.04;65.26;101027.22;4967011;28;20238;-61
2023/01/12 06:42:28;;;;;;;;;;;;;;;-10.08;65.71;101003.75;4971546;28;19930;-60
2023/01/12 06:44:54;;;;;;;;;;;;;;;-10.10;65.45;100995.91;4966405;28;19930;-60
2023/01/12 06:47:20;;;;;;;;;;;;;;;-10.10;65.53;101014.41;4966056;28;19929;-61
2023/01/12 06:49:46;;;;;;;;;;;;;;;-10.11;65.49;100994.22;4968318;28;20414;-60
2023/01/12 06:52:13;;;;;;;;;;;;;;;-10.07;65.49;101013.38;4965951;28;19940;-60
2023/01/12 06:54:39;;;;;;;;;;;;;;;-10.09;65.75;100997.59;4967116;28;20452;-66
2023/01/12 06:57:04;;;;;;;;;;;;;;;-10.03;65.49;101004.25;4965816;28;19937;-65
2023/01/12 06:59:32;;;;;;;;;;;;;;;-10.08;65.72;101017.81;4960871;28;19930;-66
2023/01/12 07:01:57;;;;;;;;;;;;;;;-10.10;65.74;101011.78;4963652;28;20003;-66
2023/01/12 07:04:24;;;;;;;;;;;;;;;-10.05;66.06;101014.09;4983558;28;19933;-66
2023/01/12 07:06:52;;;;;;;;;;;;;;;-10.03;65.97;101005.09;4948881;28;19929;-66
2023/01/12 07:09:17;;;;;;;;;;;;;;;-9.98;65.95;101010.06;4961793;28;19930;-66
2023/01/12 07:11:43;;;;;;;;;;;;;;;-9.95;65.80;101006.34;4966474;28;19934;-67
2023/01/12 07:14:09;;;;;;;;;;;;;;;-9.96;65.71;101000.22;4961177;28;19967;-66
2023/01/12 07:16:36;;;;;;;;;;;;;;;-10.00;65.87;100996.06;4967048;28;19930;-65
2023/01/12 07:19:02;;;;;;;;;;;;;;;-10.03;66.17;101005.09;4970484;28;20203;-66
2023/01/12 07:21:28;;;;;;;;;;;;;;;-10.08;66.21;100995.81;4985143;28;20015;-66
2023/01/12 07:23:54;;;;;;;;;;;;;;;-10.12;66.58;101006.63;4971063;28;19930;-66
2023/01/12 07:26:19;;;;;;;;;;;;;;;-10.20;66.82;100994.88;4970234;28;20569;-66
2023/01/12 07:28:45;;;;;;;;;;;;;;;-10.21;66.81;100990.56;4970921;28;19930;-66
2023/01/12 07:31:14;;;;;;;;;;;;;;;-10.18;67.00;100987.69;4974160;28;19929;-59
2023/01/12 07:33:41;;;;;;;;;;;;;;;-10.12;67.25;100971.34;4973535;28;20032;-59
2023/01/12 07:36:07;;;;;;;;;;;;;;;-10.07;66.89;100971.84;4963237;28;19941;-59
2023/01/12 07:38:33;;;;;;;;;;;;;;;-10.04;67.03;100978.72;4967612;28;20381;-60
2023/01/12 07:40:59;;;;;;;;;;;;;;;-10.06;67.00;100988.59;4969460;28;19988;-59
2023/01/12 07:43:25;;;;;;;;;;;;;;;-10.14;67.40;100978.56;4966527;28;20387;-61
2023/01/12 07:45:51;;;;;;;;;;;;;;;-10.14;67.71;100990.00;4968561;28;19930;-65
2023/01/12 07:48:17;;;;;;;;;;;;;;;-10.08;67.39;100985.22;4962841;28;20013;-66
2023/01/12 07:50:44;;;;;;;;;;;;;;;-10.07;66.98;101016.84;4970368;28;20045;-59
2023/01/12 07:53:10;;;;;;;;;;;;;;;-10.05;67.54;100982.34;4968291;28;20325;-66
2023/01/12 07:55:38;;;;;;;;;;;;;;;-10.01;67.50;100967.91;4976518;28;20293;-66
2023/01/12 07:58:06;;;;;;;;;;;;;;;-10.03;67.44;100967.19;4971845;28;19977;-67
2023/01/12 08:00:31;;;;;;;;;;;;;;;-10.02;67.71;100971.53;4980445;28;19978;-66
2023/01/12 08:03:03;;;;;;;;;;;;;;;-10.18;67.64;100951.47;4967243;28;19929;-66
2023/01/12 08:05:28;;;;;;;;;;;;;;;-10.02;67.64;100975.03;4984059;28;19969;-66
2023/01/12 08:07:55;;;;;;;;;;;;;;;-10.01;67.72;100968.78;4965736;28;19978;-66
2023/01/12 08:10:21;;;;;;;;;;;;;;;-9.92;67.69;100974.34;4965708;28;19930;-66
2023/01/12 08:12:49;;;;;;;;;;;;;;;-9.82;67.36;100956.84;4968693;28;20025;-66
2023/01/12 08:15:14;;;;;;;;;;;;;;;-9.71;67.11;100963.97;4969540;28;20024;-66
2023/01/12 08:17:43;;;;;;;;;;;;;;;-9.64;67.07;100951.13;4967279;28;20025;-58
2023/01/12 08:20:12;;;;;;;;;;;;;;;-9.61;66.28;100953.53;4964461;28;19930;-58
2023/01/12 08:22:41;;;;;;;;;;;;;;;-9.64;66.72;100949.34;4951055;28;19930;-66
2023/01/12 08:25:13;;;;;;;;;;;;;;;-9.61;66.60;100962.34;4967512;28;20026;-66
2023/01/12 08:27:42;;;;;;;;;;;;;;;-9.68;66.81;100961.94;4968186;28;19930;-60
2023/01/12 08:30:08;;;;;;;;;;;;;;;-9.65;66.81;100965.31;4980943;28;20409;-61
2023/01/12 08:32:35;;;;;;;;;;;;;;;-9.61;66.32;100954.41;4969039;28;19934;-58
2023/01/12 08:35:02;;;;;;;;;;;;;;;-9.54;66.25;100942.38;4981849;28;20043;-60
2023/01/12 08:37:29;;;;;;;;;;;;;;;-9.46;66.47;100943.63;4969464;28;20370;-60
2023/01/12 08:39:54;;;;;;;;;;;;;;;-9.29;65.56;100976.75;4971001;28;19937;-60
2023/01/12 08:42:26;;;;;;;;;;;;;;;-8.67;64.18;100952.63;4972010;28;19930;-66
2023/01/12 08:44:52;;;;;;;;;;;;;;;-8.51;62.81;100976.97;4966767;28;20032;-66
2023/01/12 08:47:18;;;;;;;;;;;;;;;-8.30;62.01;100939.91;4967986;28;20039;-59
2023/01/12 08:49:45;;;;;;;;;;;;;;;-7.93;61.64;100948.50;4950061;28;19945;-66
2023/01/12 08:52:11;;;;;;;;;;;;;;;-7.70;61.09;100941.28;4966212;28;19940;-67
2023/01/12 08:54:36;;;;;;;;;;;;;;;-7.37;59.53;100933.28;4966448;28;19930;-66
2023/01/12 08:57:03;;;;;;;;;;;;;;;-6.72;58.22;100938.41;4966065;28;20619;-67
2023/01/12 08:59:30;;;;;;;;;;;;;;;-6.76;57.26;100918.38;4966633;28;19937;-66
2023/01/12 09:01:56;;;;;;;;;;;;;;;-6.81;56.92;100957.81;4967034;28;19998;-60
2023/01/12 09:04:22;;;;;;;;;;;;;;;-7.14;57.89;100956.09;4966422;28;19961;-61
2023/01/12 09:06:48;;;;;;;;;;;;;;;-6.78;56.45;100928.31;4969697;28;19929;-66
2023/01/12 09:09:15;;;;;;;;;;;;;;;-6.69;56.97;100922.16;4964995;28;19954;-66
2023/01/12 09:11:42;;;;;;;;;;;;;;;-6.12;55.58;100911.78;4966932;28;20398;-66
2023/01/12 09:14:07;;;;;;;;;;;;;;;-5.92;54.61;100913.59;4948879;28;19974;-61
2023/01/12 09:16:35;;;;;;;;;;;;;;;-6.23;54.68;100913.75;4964306;28;20004;-61
2023/01/12 09:19:00;;;;;;;;;;;;;;;-6.38;55.22;100892.00;4966961;28;19930;-61
2023/01/12 09:21:27;;;;;;;;;;;;;;;-6.18;55.17;100903.50;4962763;28;19937;-66
2023/01/12 09:23:53;;;;;;;;;;;;;;;-5.98;54.01;100931.84;4966190;28;19930;-60
2023/01/12 09:26:20;;;;;;;;;;;;;;;-5.84;54.65;100887.94;4967400;28;19930;-62
2023/01/12 09:28:46;;;;;;;;;;;;;;;-5.47;52.92;100890.84;4967448;28;19934;-60
2023/01/12 09:31:13;;;;;;;;;;;;;;;-5.57;53.67;100894.41;4983967;28;19937;-60
2023/01/12 09:33:40;;;;;;;;;;;;;;;-5.40;53.36;100897.31;4964822;28;19930;-60
2023/01/12 09:36:07;;;;;;;;;;;;;;;-4.96;52.19;100883.44;4964318;28;19934;-60
2023/01/12 09:38:33;;;;;;;;;;;;;;;-4.37;51.00;100877.81;4969834;28;19934;-67
2023/01/12 09:41:00;;;;;;;;;;;;;;;-4.39;49.98;100878.94;4970329;28;19965;-66
2023/01/12 09:46:57;;;;;;;;;;;;;;;-4.65;50.67;100864.47;4967358;28;19930;-61
2023/01/12 09:49:05;;;;;;;;;;;;;;;-4.63;50.29;100870.50;4951019;28;20028;-66
2023/01/12 09:51:33;;;;;;;;;;;;;;;-4.66;50.85;100864.63;4968131;28;20326;-66
2023/01/12 09:53:59;;;;;;;;;;;;;;;-4.61;50.34;100838.31;4964701;28;19930;-66
2023/01/12 09:56:27;;;;;;;;;;;;;;;-4.16;49.14;100852.63;4967318;28;19957;-62
2023/01/12 09:58:59;;;;;;;;;;;;;;;-4.38;50.31;100854.75;4966298;28;20126;-62
2023/01/12 10:01:25;;;;;;;;;;;;;;;-3.65;49.57;100868.13;4965901;28;19930;-61
2023/01/12 10:03:51;;;;;;;;;;;;;;;-3.41;47.40;100859.44;4951293;28;20476;-61
2023/01/12 10:06:19;;;;;;;;;;;;;;;-3.43;47.20;100874.81;4951492;28;19938;-63
2023/01/12 10:08:46;;;;;;;;;;;;;;;-3.32;47.55;100863.84;4967658;28;20021;-62
2023/01/12 10:11:15;;;;;;;;;;;;;;;-3.33;46.74;100880.06;4969262;28;20024;-66
2023/01/12 10:13:54;;;;;;;;;;;;;;;-3.50;47.23;100855.03;4983417;28;20076;-66
2023/01/12 10:16:24;;;;;;;;;;;;;;;-3.74;47.52;100838.66;4978790;28;20032;-66
2023/01/12 10:18:53;;;;;;;;;;;;;;;-3.66;48.16;100842.41;4950205;28;19930;-66
2023/01/12 10:21:22;;;;;;;;;;;;;;;-3.26;46.99;100837.47;4967499;28;19934;-66
2023/01/12 10:23:48;;;;;;;;;;;;;;;-3.06;46.94;100840.75;4966281;28;19985;-67
2023/01/12 10:26:20;;;;;;;;;;;;;;;-2.83;46.03;100838.34;4967818;28;19936;-67
2023/01/12 10:28:48;;;;;;;;;;;;;;;-2.88;46.05;100838.00;4950010;28;20065;-67
2023/01/12 10:31:15;;;;;;;;;;;;;;;-2.71;46.34;100830.88;4965968;28;19934;-67
2023/01/12 10:33:59;;;;;;;;;;;;;;;-2.47;45.76;100829.25;4967911;28;20358;-67
2023/01/12 10:36:28;;;;;;;;;;;;;;;-2.19;44.36;100839.69;4980889;28;20032;-67
2023/01/12 10:38:56;;;;;;;;;;;;;;;-2.27;44.77;100835.16;4969329;28;19930;-67
2023/01/12 10:41:22;;;;;;;;;;;;;;;-2.15;43.82;100825.81;4966876;28;19937;-67
2023/01/12 10:44:04;;;;;;;;;;;;;;;-2.44;45.41;100823.56;4951073;28;19930;-67
2023/01/12 10:46:31;;;;;;;;;;;;;;;-2.42;44.16;100810.84;4968645;28;19930;-63
2023/01/12 10:49:14;;;;;;;;;;;;;;;-2.39;45.38;100804.31;4962953;28;19949;-63
2023/01/12 10:51:48;;;;;;;;;;;;;;;-2.24;44.48;100809.88;4950845;29;20029;-68
2023/01/12 10:54:16;;;;;;;;;;;;;;;-2.49;44.86;100801.78;4972772;28;19980;-63
2023/01/12 10:56:43;;;;;;;;;;;;;;;-1.80;43.81;100806.03;4972863;28;19937;-62
2023/01/12 10:59:16;;;;;;;;;;;;;;;-1.74;43.71;100806.22;4969021;28;19945;-63
2023/01/12 11:01:43;;;;;;;;;;;;;;;-1.68;43.67;100795.78;4971503;28;19937;-67
2023/01/12 11:04:12;;;;;;;;;;;;;;;-1.39;42.86;100797.94;4969440;28;19930;-67
2023/01/12 11:06:41;;;;;;;;;;;;;;;-1.46;43.34;100791.56;4968667;28;19976;-63
2023/01/12 11:09:21;;;;;;;;;;;;;;;-1.41;42.67;100772.28;4967128;28;19977;-63
2023/01/12 11:11:51;;;;;;;;;;;;;;;-1.62;42.40;100787.91;4970201;28;19930;-67
2023/01/12 11:14:24;;;;;;;;;;;;;;;-2.25;43.67;100773.38;4971871;28;20312;-63
2023/01/12 11:16:50;;;;;;;;;;;;;;;-2.17;43.92;100779.56;4969393;28;20325;-67
2023/01/12 11:19:17;;;;;;;;;;;;;;;-1.91;44.18;100777.72;4965912;28;19985;-67
2023/01/12 11:21:46;;;;;;;;;;;;;;;-1.58;42.81;100794.59;4953368;28;19938;-67
2023/01/12 11:24:15;;;;;;;;;;;;;;;-1.71;43.36;100772.84;4972382;28;19930;-63
2023/01/12 11:26:45;;;;;;;;;;;;;;;-1.71;43.16;100767.50;4971246;28;20008;-62
2023/01/12 11:29:21;;;;;;;;;;;;;;;-1.82;42.95;100786.59;4968593;28;19941;-67
2023/01/12 11:31:48;;;;;;;;;;;;;;;-2.06;43.97;100770.38;4984431;28;20029;-67
2023/01/12 11:34:17;;;;;;;;;;;;;;;-2.17;44.07;100770.69;4984788;28;19977;-67
2023/01/12 11:36:46;;;;;;;;;;;;;;;-2.17;44.27;100766.19;4969494;28;19930;-67
2023/01/12 11:39:13;;;;;;;;;;;;;;;-1.54;42.87;100772.81;4971037;28;19930;-64
2023/01/12 11:41:42;;;;;;;;;;;;;;;-1.69;43.37;100789.63;4970846;28;20037;-63
2023/01/12 11:44:15;;;;;;;;;;;;;;;-1.62;43.37;100762.94;4972073;28;19934;-64
2023/01/12 11:46:45;;;;;;;;;;;;;;;-1.30;42.16;100767.38;4985020;28;19937;-63
2023/01/12 11:49:13;;;;;;;;;;;;;;;-2.01;43.55;100759.16;4967076;28;19937;-63
2023/01/12 11:51:39;;;;;;;;;;;;;;;-2.51;44.56;100764.44;4967483;28;19953;-67
2023/01/12 11:54:06;;;;;;;;;;;;;;;-2.66;45.20;100760.72;4968769;28;19952;-67
2023/01/12 11:56:59;;;;;;;;;;;;;;;-2.79;45.66;100780.81;4969504;28;19930;-67
2023/01/12 11:59:33;;;;;;;;;;;;;;;-2.43;45.08;100758.25;4934943;28;19993;-63
2023/01/12 12:02:03;;;;;;;;;;;;;;;-2.27;44.38;100762.81;4970431;28;19930;-61
2023/01/12 12:04:35;;;;;;;;;;;;;;;-2.48;45.32;100763.28;4968446;28;20024;-63
2023/01/12 12:07:09;;;;;;;;;;;;;;;-2.13;44.97;100758.63;4952041;28;20033;-64
2023/01/12 12:09:51;;;;;;;;;;;;;;;-2.06;44.40;100778.41;4967667;28;20640;-63
2023/01/12 12:12:22;;;;;;;;;;;;;;;-2.42;44.65;100760.78;4969320;28;19930;-63
2023/01/12 12:14:58;;;;;;;;;;;;;;;-2.67;45.54;100754.56;4970297;28;19974;-64
2023/01/12 12:17:28;;;;;;;;;;;;;;;-2.96;46.29;100745.09;4970880;28;19947;-63
2023/01/12 12:20:00;;;;;;;;;;;;;;;-2.85;46.56;100744.81;4967901;28;20398;-63
2023/01/12 12:22:33;;;;;;;;;;;;;;;-2.72;46.03;100747.00;4967445;28;20017;-63
2023/01/12 12:25:09;;;;;;;;;;;;;;;-3.39;46.88;100721.03;4971721;28;19929;-64
2023/01/12 12:27:43;;;;;;;;;;;;;;;-3.81;48.42;100748.53;4965355;28;19930;-63
2023/01/12 12:30:23;;;;;;;;;;;;;;;-4.97;50.69;100751.03;4972445;28;19937;-63
2023/01/12 12:32:54;;;;;;;;;;;;;;;-5.66;52.85;100740.66;4969784;28;19961;-67
2023/01/12 12:35:24;;;;;;;;;;;;;;;-6.23;54.51;100740.69;4970397;28;19937;-67
2023/01/12 12:37:58;;;;;;;;;;;;;;;-6.77;56.27;100738.44;4969213;28;20020;-63
2023/01/12 12:45:15;;;;;;;;;;;;;;;-7.14;57.63;100747.88;4966768;28;19930;-67
2023/01/12 12:46:12;;;;;;;;;;;;;;;-7.63;60.23;100729.94;4950329;28;19937;-63
2023/01/12 12:48:44;;;;;;;;;;;;;;;-7.77;60.81;100746.22;4965508;28;19933;-67
2023/01/12 12:51:12;;;;;;;;;;;;;;;-7.92;61.56;100741.25;4968258;28;19930;-67
2023/01/12 12:53:40;;;;;;;;;;;;;;;-8.02;61.92;100759.78;4966834;28;20557;-67
2023/01/12 12:56:07;;;;;;;;;;;;;;;-8.10;62.21;100748.97;4957366;28;19930;-62
2023/01/12 12:58:41;;;;;;;;;;;;;;;-8.17;63.33;100745.16;4959689;28;19984;-62
2023/01/12 13:01:28;;;;;;;;;;;;;;;-8.30;63.41;100743.53;4963961;28;19977;-63
2023/01/12 13:03:56;;;;;;;;;;;;;;;-8.36;63.94;100735.22;4970209;28;19930;-62
2023/01/12 13:06:23;;;;;;;;;;;;;;;-8.38;64.23;100732.69;4967539;28;19977;-62
2023/01/12 13:08:50;;;;;;;;;;;;;;;-8.43;64.53;100740.22;4966425;28;19954;-67
2023/01/12 13:11:16;;;;;;;;;;;;;;;-8.49;64.88;100735.44;4968780;28;20142;-61